Time;durP1;ratioP1;P1;durP2;ratioP2;P2;SDS_P1;SDS_P2;PMS_P1;PMS_P2;Temp;Humidity;BMP_temperature;BMP_pressure;BME280_temperature;BME280_humidity;BME280_pressure;Samples;Min_cycle;Max_cycle;Signal;HPM_P1;HPM_P2
2022/06/27 00:00:23;;;;;;;11.43;3.85;;;;;;;27.32;46.69;100834.66;5067714;28;20052;-81
2022/06/27 00:02:55;;;;;;;14.27;3.65;;;;;;;27.30;46.86;100823.97;5066306;28;20091;-80
2022/06/27 00:05:22;;;;;;;9.52;3.90;;;;;;;27.56;47.00;100879.00;5066662;28;20049;-82
2022/06/27 00:07:48;;;;;;;12.90;4.43;;;;;;;28.06;47.40;100965.66;5068186;28;20469;-82
2022/06/27 00:10:15;;;;;;;15.77;5.32;;;;;;;27.88;47.41;100953.03;5067545;28;20052;-81
2022/06/27 00:12:42;;;;;;;8.32;4.47;;;;;;;27.84;47.84;100974.53;5068461;28;20486;-82
2022/06/27 00:15:10;;;;;;;9.48;3.78;;;;;;;26.89;47.97;100809.47;5067974;28;20071;-82
2022/06/27 00:17:38;;;;;;;13.95;4.10;;;;;;;27.88;47.90;100970.22;5066466;28;20063;-82
2022/06/27 00:20:05;;;;;;;12.95;4.65;;;;;;;27.63;47.88;100934.25;5065647;28;20059;-82
2022/06/27 00:22:32;;;;;;;14.57;4.60;;;;;;;27.80;48.02;100967.84;5066952;28;20048;-82
2022/06/27 00:24:59;;;;;;;13.90;4.57;;;;;;;27.61;48.24;100931.75;5065327;28;20411;-82
2022/06/27 00:27:26;;;;;;;14.90;4.85;;;;;;;27.80;47.91;100972.50;5066297;28;20135;-83
2022/06/27 00:29:53;;;;;;;9.65;4.28;;;;;;;27.14;48.29;100884.63;5066189;28;20139;-82
2022/06/27 00:32:21;;;;;;;14.18;4.70;;;;;;;27.21;48.19;100899.00;5065724;28;20147;-82
2022/06/27 00:34:48;;;;;;;14.82;5.13;;;;;;;27.36;48.65;100942.13;5065910;28;20130;-83
2022/06/27 00:37:15;;;;;;;11.98;4.80;;;;;;;27.14;48.51;100892.81;5066784;28;20045;-82
2022/06/27 00:39:42;;;;;;;17.73;4.90;;;;;;;27.53;48.79;100942.22;5067184;28;20087;-82
2022/06/27 00:42:09;;;;;;;12.80;4.38;;;;;;;27.60;48.09;100940.16;5048465;28;20110;-81
2022/06/27 00:44:38;;;;;;;13.02;4.03;;;;;;;27.78;48.14;100948.19;5048993;28;20052;-82
2022/06/27 00:47:07;;;;;;;11.25;3.95;;;;;;;27.53;48.05;100902.13;5066497;28;20166;-83
2022/06/27 00:49:35;;;;;;;11.05;4.57;;;;;;;27.63;47.63;100899.63;5048731;28;20149;-82
2022/06/27 00:52:04;;;;;;;12.50;3.97;;;;;;;27.76;47.80;100914.84;5066341;28;20064;-83
2022/06/27 00:54:32;;;;;;;13.27;3.70;;;;;;;26.27;47.90;100682.06;5064717;28;20044;-82
2022/06/27 00:56:58;;;;;;;11.20;4.38;;;;;;;27.76;47.61;100917.59;5065032;28;20049;-82
2022/06/27 00:59:25;;;;;;;14.93;4.03;;;;;;;27.65;47.96;100915.75;5066316;28;20063;-82
2022/06/27 01:01:52;;;;;;;6.47;3.67;;;;;;;27.60;48.14;100929.25;5064816;28;20445;-82
2022/06/27 01:04:21;;;;;;;13.82;4.40;;;;;;;27.76;47.92;100908.56;5048721;28;20056;-83
2022/06/27 01:06:54;;;;;;;9.35;4.80;;;;;;;27.51;48.10;100868.00;5066572;28;20055;-81
2022/06/27 01:09:22;;;;;;;9.52;4.15;;;;;;;27.58;48.41;100895.97;5048530;28;20098;-80
2022/06/27 01:11:49;;;;;;;9.77;3.95;;;;;;;27.55;48.62;100894.56;5048528;28;20060;-81
2022/06/27 01:14:17;;;;;;;10.77;4.45;;;;;;;27.47;48.86;100903.91;5048947;28;20102;-82
2022/06/27 01:16:44;;;;;;;14.13;3.92;;;;;;;27.25;49.18;100886.56;5048483;28;20053;-81
2022/06/27 01:19:13;;;;;;;11.30;4.47;;;;;;;27.35;49.06;100905.03;5048618;28;20070;-81
2022/06/27 01:21:45;;;;;;;12.18;3.55;;;;;;;27.35;49.17;100905.84;5048523;28;20064;-82
2022/06/27 01:24:11;;;;;;;9.77;4.20;;;;;;;26.98;49.14;100840.72;5066553;28;20037;-81
2022/06/27 01:26:41;;;;;;;19.65;4.70;;;;;;;27.20;48.78;100859.19;5048965;28;20045;-83
2022/06/27 01:29:08;;;;;;;15.48;8.27;;;;;;;27.47;48.76;100886.75;5049137;28;20055;-82
2022/06/27 01:31:36;;;;;;;18.50;4.90;;;;;;;27.47;48.92;100884.81;5048751;28;20105;-81
2022/06/27 01:34:03;;;;;;;12.25;4.50;;;;;;;27.43;48.47;100880.94;5066629;28;20049;-81
2022/06/27 01:36:42;;;;;;;14.57;3.80;;;;;;;27.53;48.59;100876.78;5051171;28;20051;-81
2022/06/27 01:39:14;;;;;;;10.85;3.63;;;;;;;27.46;48.06;100847.75;5048988;28;20045;-82
2022/06/27 01:41:43;;;;;;;9.10;4.32;;;;;;;27.45;47.84;100835.19;5053512;28;20525;-81
2022/06/27 01:44:11;;;;;;;10.50;3.72;;;;;;;26.89;48.46;100751.44;5036734;28;20522;-82
2022/06/27 01:46:46;;;;;;;10.80;4.57;;;;;;;27.27;48.63;100844.38;5051458;28;20046;-82
2022/06/27 01:49:15;;;;;;;9.85;4.70;;;;;;;27.35;48.85;100859.50;5034091;28;20048;-83
2022/06/27 01:51:50;;;;;;;10.02;4.57;;;;;;;27.17;49.16;100848.75;5050143;28;20103;-82
2022/06/27 01:54:20;;;;;;;15.18;4.75;;;;;;;27.05;49.53;100851.50;5052169;28;20056;-82
2022/06/27 01:56:51;;;;;;;15.60;5.05;;;;;;;25.76;49.87;100669.97;5070002;28;20147;-82
2022/06/27 01:59:23;;;;;;;21.33;4.85;;;;;;;26.85;49.93;100860.06;5052573;28;20040;-81
2022/06/27 02:01:50;;;;;;;19.88;5.22;;;;;;;26.78;50.22;100867.53;5054161;28;20083;-81
2022/06/27 02:04:17;;;;;;;13.35;4.60;;;;;;;26.87;50.05;100857.94;5064583;28;20046;-82
2022/06/27 02:06:45;;;;;;;10.90;4.75;;;;;;;26.18;50.19;100787.69;5063237;28;20148;-81
2022/06/27 02:09:15;;;;;;;10.68;4.50;;;;;;;25.86;50.34;100735.50;5072293;28;20041;-84
2022/06/27 02:11:44;;;;;;;8.63;4.35;;;;;;;26.60;50.71;100863.00;5076119;28;20036;-81
2022/06/27 02:14:12;;;;;;;12.05;4.25;;;;;;;26.18;50.69;100786.88;5081042;28;20437;-82
2022/06/27 02:16:47;;;;;;;8.13;5.18;;;;;;;26.55;50.95;100880.03;5053222;28;20052;-82
2022/06/27 02:19:19;;;;;;;12.52;4.95;;;;;;;26.54;51.20;100891.19;5052337;28;20045;-83
2022/06/27 02:21:47;;;;;;;7.57;4.95;;;;;;;26.47;51.67;100891.25;5051302;28;20066;-82
2022/06/27 02:24:14;;;;;;;8.82;5.22;;;;;;;26.38;52.29;100896.22;5051521;28;20049;-83
2022/06/27 02:26:42;;;;;;;23.08;5.22;;;;;;;26.31;52.63;100913.72;5051228;28;20048;-82
2022/06/27 02:29:09;;;;;;;13.60;5.72;;;;;;;26.09;52.47;100887.03;5052488;28;20040;-82
2022/06/27 02:31:44;;;;;;;18.92;5.38;;;;;;;26.45;52.20;100934.22;5051855;28;20385;-81
2022/06/27 02:34:12;;;;;;;15.88;5.93;;;;;;;26.36;52.11;100908.41;5051390;28;20060;-83
2022/06/27 02:36:41;;;;;;;15.80;4.35;;;;;;;26.12;52.56;100889.31;5051138;28;20291;-82
2022/06/27 02:39:11;;;;;;;17.17;5.25;;;;;;;26.32;52.74;100929.00;5052385;28;20047;-82
2022/06/27 02:41:40;;;;;;;11.23;5.28;;;;;;;26.31;53.37;100938.19;5052542;28;20053;-81
2022/06/27 02:44:13;;;;;;;19.42;5.75;;;;;;;24.94;53.53;100717.56;5033952;28;20121;-82
2022/06/27 02:46:41;;;;;;;16.42;5.22;;;;;;;26.34;53.33;100914.09;5050004;28;20045;-81
2022/06/27 02:49:09;;;;;;;11.10;4.80;;;;;;;25.89;53.64;100864.75;5068125;28;20114;-81
2022/06/27 02:51:49;;;;;;;15.15;5.80;;;;;;;24.84;54.48;100717.28;5068445;28;20052;-82
2022/06/27 02:54:26;;;;;;;10.95;5.82;;;;;;;25.76;55.12;100876.63;5049492;28;20072;-81
2022/06/27 02:57:01;;;;;;;12.13;6.38;;;;;;;25.59;55.52;100849.25;5049869;28;20113;-82
2022/06/27 02:59:37;;;;;;;27.30;7.32;;;;;;;26.14;55.55;100932.59;5067605;28;20105;-83
2022/06/27 03:02:09;;;;;;;17.58;6.32;;;;;;;25.61;55.55;100858.00;5010193;28;1155894;-82
2022/06/27 03:04:37;;;;;;;16.15;6.38;;;;;;;25.89;55.50;100919.97;5067550;28;20064;-81
2022/06/27 03:07:05;;;;;;;10.40;6.00;;;;;;;25.95;55.47;100945.44;5067393;28;20048;-81
2022/06/27 03:09:31;;;;;;;20.02;6.63;;;;;;;25.31;55.58;100858.78;5068594;28;20048;-82
2022/06/27 03:11:58;;;;;;;12.95;5.82;;;;;;;25.79;55.84;100942.25;5067249;28;20048;-82
2022/06/27 03:14:25;;;;;;;14.23;5.45;;;;;;;25.86;55.66;100953.06;5067431;28;20045;-82
2022/06/27 03:16:52;;;;;;;16.25;5.85;;;;;;;25.77;56.19;100968.81;5068283;28;20056;-82
2022/06/27 03:19:20;;;;;;;13.60;5.60;;;;;;;25.53;55.85;100932.53;5068540;28;20048;-82
2022/06/27 03:21:47;;;;;;;18.90;5.85;;;;;;;25.66;55.86;100947.88;5067255;28;20060;-81
2022/06/27 03:24:13;;;;;;;12.68;6.50;;;;;;;24.94;55.91;100828.88;5067329;28;20040;-82
2022/06/27 03:26:40;;;;;;;17.40;6.40;;;;;;;25.32;56.11;100882.19;5068333;28;20056;-82
2022/06/27 03:29:09;;;;;;;14.00;4.90;;;;;;;25.94;56.28;100992.72;5068058;28;20105;-81
2022/06/27 03:31:36;;;;;;;14.65;6.32;;;;;;;24.90;56.39;100827.69;5066604;28;20513;-82
2022/06/27 03:34:03;;;;;;;11.40;5.80;;;;;;;25.81;56.04;100966.50;5066731;28;20041;-82
2022/06/27 03:36:30;;;;;;;17.05;6.50;;;;;;;25.31;55.82;100885.13;5066698;28;20056;-80
2022/06/27 03:38:59;;;;;;;16.17;5.90;;;;;;;24.64;55.50;100770.97;5067577;28;20056;-81
2022/06/27 03:41:26;;;;;;;12.48;5.72;;;;;;;25.52;54.99;100920.00;5051373;28;20052;-81
2022/06/27 03:43:53;;;;;;;13.90;5.32;;;;;;;25.79;54.64;100974.88;5070538;28;20048;-80
2022/06/27 03:46:20;;;;;;;14.07;5.00;;;;;;;25.87;54.80;100997.41;5068584;28;20076;-81
2022/06/27 03:51:32;;;;;;;14.05;5.25;;;;;;;25.75;54.42;100983.72;5067667;28;20048;-80
2022/06/27 03:53:59;;;;;;;15.35;4.43;;;;;;;25.98;53.84;101010.25;5061085;28;20457;-80
2022/06/27 03:56:26;;;;;;;12.02;4.95;;;;;;;25.85;53.84;100994.91;5066709;28;20048;-82
2022/06/27 03:58:53;;;;;;;14.65;5.03;;;;;;;25.78;53.37;100992.25;5066479;28;20072;-82
2022/06/27 04:01:20;;;;;;;14.82;4.85;;;;;;;25.85;53.71;101004.94;5065922;28;20048;-81
2022/06/27 04:03:47;;;;;;;10.82;4.38;;;;;;;24.69;53.86;100820.00;5066167;28;20056;-80
2022/06/27 04:06:13;;;;;;;14.00;5.72;;;;;;;25.42;53.68;100941.44;5065860;28;20513;-82
2022/06/27 04:08:40;;;;;;;11.07;6.22;;;;;;;24.88;53.56;100851.53;5066314;28;20501;-83
2022/06/27 04:11:07;;;;;;;12.73;5.63;;;;;;;25.17;53.33;100889.88;5066523;28;20056;-82
2022/06/27 04:13:34;;;;;;;13.85;6.38;;;;;;;25.66;53.58;100977.78;5066497;28;20044;-81
2022/06/27 04:16:00;;;;;;;13.70;5.80;;;;;;;24.73;53.70;100848.31;5067437;28;20098;-81
2022/06/27 04:18:27;;;;;;;19.70;7.63;;;;;;;25.77;53.90;101023.22;5065683;28;20053;-82
2022/06/27 04:20:54;;;;;;;15.55;6.85;;;;;;;25.70;53.80;100997.97;5066447;28;20051;-84
2022/06/27 04:23:21;;;;;;;16.02;5.82;;;;;;;24.31;54.16;100804.66;5066907;28;20139;-82
2022/06/27 04:25:48;;;;;;;12.55;6.68;;;;;;;25.15;54.71;100940.88;5066284;28;20052;-82
2022/06/27 04:28:15;;;;;;;16.52;6.60;;;;;;;25.27;54.46;100955.41;5065676;28;20457;-82
2022/06/27 04:30:42;;;;;;;21.40;7.40;;;;;;;25.51;54.58;100993.59;5066359;28;20052;-82
2022/06/27 04:33:09;;;;;;;13.40;6.35;;;;;;;25.75;54.10;101033.50;5073528;28;20387;-81
2022/06/27 04:35:36;;;;;;;14.80;7.20;;;;;;;25.44;54.32;100979.25;5070150;28;20456;-79
2022/06/27 04:38:03;;;;;;;17.27;7.13;;;;;;;25.18;54.08;100945.06;5067284;28;20052;-80
2022/06/27 04:40:30;;;;;;;15.55;7.00;;;;;;;25.72;53.75;101006.75;5050123;28;20102;-82
2022/06/27 04:42:57;;;;;;;14.23;7.00;;;;;;;25.25;53.73;100934.97;5029084;28;20044;-83
2022/06/27 04:45:24;;;;;;;16.00;7.63;;;;;;;25.71;53.69;101015.97;5049737;28;20630;-82
2022/06/27 04:47:52;;;;;;;20.73;7.07;;;;;;;25.77;53.65;101014.22;5048300;28;20222;-80
2022/06/27 04:50:21;;;;;;;18.15;7.65;;;;;;;25.88;53.43;101026.28;5052950;28;20049;-81
2022/06/27 04:52:49;;;;;;;20.92;7.43;;;;;;;26.01;53.44;101039.72;5059641;28;20040;-81
2022/06/27 04:55:16;;;;;;;18.30;7.97;;;;;;;25.98;52.95;101032.00;5074844;28;20056;-82
2022/06/27 04:57:44;;;;;;;13.20;7.18;;;;;;;25.45;52.64;100913.00;5069586;28;20045;-83
2022/06/27 05:00:14;;;;;;;14.38;6.93;;;;;;;25.78;52.81;100983.28;5057577;28;20111;-81
2022/06/27 05:02:47;;;;;;;17.25;7.45;;;;;;;26.10;52.97;101029.34;5062101;28;20270;-82
2022/06/27 05:05:14;;;;;;;16.40;7.32;;;;;;;25.88;53.17;101021.66;5049097;28;20530;-82
2022/06/27 05:07:43;;;;;;;18.40;7.40;;;;;;;26.08;53.23;101048.63;5048507;28;20052;-83
2022/06/27 05:10:10;;;;;;;14.52;7.80;;;;;;;25.53;53.17;100953.44;5032493;28;20129;-83
2022/06/27 05:12:37;;;;;;;12.68;7.70;;;;;;;26.11;52.93;101042.72;5070102;28;20048;-82
2022/06/27 05:15:05;;;;;;;18.38;8.18;;;;;;;26.13;52.80;101046.03;5070460;28;20060;-81
2022/06/27 05:17:32;;;;;;;20.23;8.02;;;;;;;26.12;53.21;101052.56;5051978;28;20056;-81
2022/06/27 05:19:58;;;;;;;24.90;7.40;;;;;;;26.05;52.77;101026.50;5051342;28;20056;-81
2022/06/27 05:22:25;;;;;;;13.75;7.93;;;;;;;26.34;52.53;101062.94;5069625;28;20399;-82
2022/06/27 05:24:52;;;;;;;19.73;7.72;;;;;;;26.17;52.43;101036.38;5052127;28;20049;-83
2022/06/27 05:27:19;;;;;;;20.65;8.35;;;;;;;26.38;52.39;101067.69;5052451;28;20123;-82
2022/06/27 05:29:45;;;;;;;13.30;7.50;;;;;;;25.67;52.61;100965.81;5052796;28;20122;-82
2022/06/27 05:32:13;;;;;;;15.98;7.60;;;;;;;26.32;52.61;101065.91;5053384;28;20063;-82
2022/06/27 05:34:40;;;;;;;17.38;7.65;;;;;;;25.89;52.86;101006.19;5070856;28;20051;-83
2022/06/27 05:37:07;;;;;;;21.00;8.10;;;;;;;26.03;52.68;101013.13;5052867;28;20082;-82
2022/06/27 05:39:34;;;;;;;13.40;8.07;;;;;;;26.36;52.67;101036.31;5070741;28;20052;-81
2022/06/27 05:42:03;;;;;;;15.27;7.10;;;;;;;26.56;52.73;101072.31;5072624;28;20070;-81
2022/06/27 05:44:30;;;;;;;12.75;7.70;;;;;;;26.73;51.93;101088.00;5053762;28;20384;-81
2022/06/27 05:46:58;;;;;;;20.10;7.97;;;;;;;26.76;52.15;101076.63;5070713;28;20143;-81
2022/06/27 05:49:25;;;;;;;15.30;8.05;;;;;;;26.17;52.15;100970.25;5071003;28;20478;-81
2022/06/27 05:51:57;;;;;;;24.27;9.35;;;;;;;26.84;52.39;101068.09;5069442;28;20044;-82
2022/06/27 05:54:25;;;;;;;21.70;9.57;;;;;;;25.81;51.47;100890.34;5052298;28;20056;-82
2022/06/27 05:56:52;;;;;;;28.90;8.85;;;;;;;26.29;51.56;100957.50;5069748;28;20048;-82
2022/06/27 05:59:23;;;;;;;24.80;7.90;;;;;;;26.62;50.94;100995.13;5052322;28;20133;-81
2022/06/27 06:01:53;;;;;;;16.45;9.55;;;;;;;27.14;50.61;101068.06;5051504;28;20121;-82
2022/06/27 06:04:20;;;;;;;17.38;9.18;;;;;;;27.15;50.70;101068.88;5051719;28;20053;-79
2022/06/27 06:06:48;;;;;;;16.77;9.35;;;;;;;27.21;50.48;101057.06;5051478;28;20044;-82
2022/06/27 06:09:15;;;;;;;19.38;8.77;;;;;;;27.15;50.54;101047.09;5051472;28;20106;-82
2022/06/27 06:11:48;;;;;;;18.13;8.07;;;;;;;27.12;50.63;101047.56;5069227;28;20037;-80
2022/06/27 06:14:17;;;;;;;15.10;8.15;;;;;;;26.67;50.68;100979.97;5051684;28;20048;-81
2022/06/27 06:16:47;;;;;;;12.95;7.78;;;;;;;26.60;51.03;100963.75;5052240;28;20088;-81
2022/06/27 06:19:14;;;;;;;11.45;7.82;;;;;;;26.21;50.76;100896.09;5051964;28;20525;-81
2022/06/27 06:21:41;;;;;;;16.83;8.68;;;;;;;27.25;50.53;101059.09;5051130;28;20190;-81
2022/06/27 06:24:09;;;;;;;18.65;9.20;;;;;;;27.00;50.44;101010.22;5054816;28;20114;-81
2022/06/27 06:26:35;;;;;;;16.48;7.72;;;;;;;27.31;50.69;101054.59;5059459;28;20064;-82
2022/06/27 06:29:12;;;;;;;16.95;8.13;;;;;;;27.31;50.70;101059.19;5073466;28;20066;-82
2022/06/27 06:31:41;;;;;;;14.25;7.32;;;;;;;27.23;50.57;101024.97;5076532;28;20059;-80
2022/06/27 06:34:09;;;;;;;18.55;7.97;;;;;;;27.23;50.75;101017.59;5058798;28;20556;-82
2022/06/27 06:36:37;;;;;;;20.83;8.32;;;;;;;26.81;51.22;100960.47;5052541;28;20479;-82
2022/06/27 06:39:05;;;;;;;17.35;7.88;;;;;;;27.53;51.49;101064.91;5069084;28;20055;-81
2022/06/27 06:41:33;;;;;;;15.75;7.45;;;;;;;26.63;51.38;100923.28;5051011;28;20122;-82
2022/06/27 06:44:00;;;;;;;24.23;7.72;;;;;;;27.62;50.98;101068.91;5051151;28;20514;-82
2022/06/27 06:46:27;;;;;;;18.38;7.65;;;;;;;27.62;50.72;101049.81;5050449;28;20119;-82
2022/06/27 06:48:57;;;;;;;15.93;7.68;;;;;;;27.49;50.65;100999.94;5050761;28;20048;-82
2022/06/27 06:51:24;;;;;;;17.33;8.60;;;;;;;27.78;51.04;101031.91;5068524;28;20647;-82
2022/06/27 06:53:51;;;;;;;13.23;6.82;;;;;;;28.01;51.33;101055.59;5068755;28;20084;-82
2022/06/27 06:56:20;;;;;;;16.60;7.30;;;;;;;27.71;51.20;100980.22;5051569;28;20086;-80
2022/06/27 06:58:47;;;;;;;24.83;8.48;;;;;;;28.22;50.89;101063.13;5050723;28;20589;-81
2022/06/27 07:01:18;;;;;;;26.00;8.38;;;;;;;27.86;50.39;100990.63;5051846;28;20044;-83
2022/06/27 07:03:45;;;;;;;19.85;8.95;;;;;;;28.38;49.81;101072.47;5082004;28;20060;-82
2022/06/27 07:06:12;;;;;;;23.52;8.38;;;;;;;28.28;50.25;101062.19;5069509;28;20044;-82
2022/06/27 07:08:39;;;;;;;19.48;8.90;;;;;;;28.35;50.02;101062.00;5071286;28;20113;-80
2022/06/27 07:11:07;;;;;;;34.10;8.70;;;;;;;28.26;49.97;101064.31;5077692;28;20033;-82
2022/06/27 07:13:34;;;;;;;19.90;8.15;;;;;;;28.40;49.97;101077.66;5082760;28;20048;-84
2022/06/27 07:16:03;;;;;;;22.52;8.00;;;;;;;28.30;50.30;101065.50;5084472;28;20090;-82
2022/06/27 07:18:30;;;;;;;25.48;8.18;;;;;;;28.44;50.13;101078.84;5080027;28;20287;-81
2022/06/27 07:21:09;;;;;;;23.38;9.55;;;;;;;27.61;50.20;100941.84;5077885;28;20489;-81
2022/06/27 07:23:58;;;;;;;17.92;7.95;;;;;;;28.05;49.68;101007.66;5041710;28;20057;-82
2022/06/27 07:26:27;;;;;;;21.00;8.65;;;;;;;28.08;49.70;101008.00;5069822;28;20071;-82
2022/06/27 07:28:55;;;;;;;24.75;8.73;;;;;;;28.05;49.84;100992.13;5067231;28;20059;-83
2022/06/27 07:31:22;;;;;;;18.05;8.57;;;;;;;28.41;48.65;101000.16;5068557;28;20078;-81
2022/06/27 07:33:53;;;;;;;12.32;7.68;;;;;;;28.80;49.29;101071.34;5066539;28;20056;-82
2022/06/27 07:36:22;;;;;;;18.30;8.20;;;;;;;28.53;49.81;101023.63;5065820;28;20131;-81
2022/06/27 07:38:52;;;;;;;17.60;8.15;;;;;;;28.87;49.88;101059.16;5063552;28;20060;-81
2022/06/27 07:41:20;;;;;;;17.60;8.27;;;;;;;29.00;50.15;101062.66;5046853;28;20056;-81
2022/06/27 07:43:51;;;;;;;11.95;7.03;;;;;;;28.92;49.76;101022.91;5049592;28;20132;-82
2022/06/27 07:46:20;;;;;;;12.93;8.35;;;;;;;28.72;49.12;100980.53;5047161;28;20800;-82
2022/06/27 07:48:50;;;;;;;24.13;7.80;;;;;;;29.10;49.29;101036.34;5048338;28;20045;-82
2022/06/27 07:51:19;;;;;;;17.85;7.30;;;;;;;29.28;49.31;101042.66;5047453;28;20414;-81
2022/06/27 07:53:48;;;;;;;19.65;8.02;;;;;;;29.37;48.87;101036.50;5077402;28;20056;-82
2022/06/27 07:56:27;;;;;;;21.40;7.72;;;;;;;28.87;49.47;100968.19;5067185;28;20113;-81
2022/06/27 07:59:14;;;;;;;26.10;8.30;;;;;;;29.48;50.23;101036.63;5067943;28;20114;-83
2022/06/27 08:01:44;;;;;;;31.88;8.93;;;;;;;28.57;49.99;100872.91;5067231;28;20139;-83
2022/06/27 08:04:14;;;;;;;17.30;7.60;;;;;;;28.91;50.26;100922.88;5068331;28;20049;-82
2022/06/27 08:06:43;;;;;;;29.73;8.60;;;;;;;28.46;50.14;100836.44;5051126;28;20063;-81
2022/06/27 08:09:10;;;;;;;11.82;7.68;;;;;;;29.53;49.83;100977.34;5050066;28;20494;-82
2022/06/27 08:11:40;;;;;;;27.08;7.75;;;;;;;29.25;49.69;100931.03;5050287;28;20076;-82
2022/06/27 08:14:11;;;;;;;18.08;6.97;;;;;;;29.10;49.20;100894.22;5049943;28;20098;-81
2022/06/27 08:16:39;;;;;;;17.27;7.60;;;;;;;29.53;48.22;100960.94;5050325;28;20048;-81
2022/06/27 08:19:10;;;;;;;20.27;8.07;;;;;;;30.24;47.45;101043.13;5050623;28;20048;-83
2022/06/27 08:21:44;;;;;;;20.73;7.65;;;;;;;30.20;47.15;101027.47;5051046;28;20063;-82
2022/06/27 08:24:16;;;;;;;20.90;6.60;;;;;;;30.21;46.19;101020.88;5050505;28;20163;-82
2022/06/27 08:26:46;;;;;;;21.00;7.00;;;;;;;30.19;47.21;101009.34;5049604;28;20049;-81
2022/06/27 08:29:14;;;;;;;19.33;6.95;;;;;;;30.34;47.10;101020.53;5067482;28;20053;-82
2022/06/27 08:31:41;;;;;;;18.00;7.28;;;;;;;30.31;47.76;101022.94;5049387;28;20040;-82
2022/06/27 08:34:08;;;;;;;20.55;7.85;;;;;;;30.42;48.39;101036.47;5049755;28;20059;-80
2022/06/27 08:36:36;;;;;;;14.82;7.50;;;;;;;30.21;48.82;100996.25;5049935;28;20045;-83
2022/06/27 08:39:07;;;;;;;23.95;8.15;;;;;;;30.37;50.22;101005.47;5067857;28;20094;-80
2022/06/27 08:41:37;;;;;;;23.80;8.02;;;;;;;30.61;50.12;101017.75;5051228;28;20098;-83
2022/06/27 08:44:06;;;;;;;17.17;7.38;;;;;;;30.61;50.40;101012.28;5052766;28;20238;-82
2022/06/27 08:46:35;;;;;;;14.93;7.00;;;;;;;29.49;50.66;100825.81;5052820;28;20049;-80
2022/06/27 08:49:05;;;;;;;20.92;7.47;;;;;;;30.22;50.76;100938.50;5051988;28;20045;-79
2022/06/27 08:51:33;;;;;;;22.83;7.30;;;;;;;30.24;51.21;100930.00;5035469;28;20090;-80
2022/06/27 08:54:06;;;;;;;31.58;8.00;;;;;;;30.32;50.66;100926.84;5051430;28;20136;-84
2022/06/27 08:56:33;;;;;;;20.05;6.75;;;;;;;30.72;49.80;100966.59;5050693;28;20494;-78
2022/06/27 08:59:01;;;;;;;13.07;6.75;;;;;;;31.25;48.14;101018.81;5068442;28;20179;-79
2022/06/27 09:01:33;;;;;;;23.58;6.30;;;;;;;31.20;47.71;101014.13;5050449;28;20094;-79
2022/06/27 09:04:06;;;;;;;17.40;6.20;;;;;;;31.27;47.34;101003.75;5030310;28;20560;-82
2022/06/27 09:06:43;;;;;;;15.13;5.50;;;;;;;31.50;47.06;101027.22;5031552;28;20457;-81
2022/06/27 09:09:14;;;;;;;20.85;6.70;;;;;;;30.77;47.02;100900.88;5030810;28;20053;-82
2022/06/27 09:11:49;;;;;;;20.67;5.97;;;;;;;31.68;46.44;101009.50;5030362;28;20372;-81
2022/06/27 09:14:41;;;;;;;27.98;6.50;;;;;;;31.85;46.93;101002.97;5029214;28;20060;-80
2022/06/27 09:17:13;;;;;;;23.38;6.28;;;;;;;31.45;46.60;100916.66;5029321;28;20449;-80
2022/06/27 09:19:55;;;;;;;21.40;6.40;;;;;;;31.91;46.10;100999.13;5029932;28;20071;-80
2022/06/27 09:22:30;;;;;;;23.95;6.68;;;;;;;31.88;45.93;101013.41;5050783;28;20102;-81
2022/06/27 09:25:09;;;;;;;22.83;6.78;;;;;;;32.15;44.88;101024.22;5033089;28;20110;-79
2022/06/27 09:27:43;;;;;;;16.35;6.07;;;;;;;32.25;44.89;100994.03;5034934;28;20075;-82
2022/06/27 09:30:22;;;;;;;21.45;6.35;;;;;;;32.50;44.54;100998.78;5033236;28;20169;-82
2022/06/27 09:33:00;;;;;;;22.38;5.43;;;;;;;32.33;44.34;100940.47;5011381;28;20088;-80
2022/06/27 09:35:36;;;;;;;23.20;6.45;;;;;;;32.61;44.32;100985.88;5010860;28;20041;-82
2022/06/27 09:38:06;;;;;;;23.63;6.40;;;;;;;32.13;44.62;100933.88;5017422;28;20041;-80
2022/06/27 09:40:35;;;;;;;21.25;5.70;;;;;;;32.10;45.24;100928.94;5022960;28;20045;-82
2022/06/27 09:43:05;;;;;;;15.93;6.03;;;;;;;31.16;45.43;100766.22;5033455;28;20131;-81
2022/06/27 09:45:37;;;;;;;20.63;6.43;;;;;;;32.60;44.26;100975.13;5018252;28;20132;-83
2022/06/27 09:48:15;;;;;;;28.13;6.18;;;;;;;32.47;42.31;100960.81;5020993;28;20056;-82
2022/06/27 09:50:43;;;;;;;20.10;5.78;;;;;;;32.20;41.22;100888.84;5046316;28;20052;-82
2022/06/27 09:53:15;;;;;;;16.48;5.63;;;;;;;31.94;41.15;100844.84;5037754;28;20045;-82
2022/06/27 09:55:46;;;;;;;27.67;6.80;;;;;;;32.80;42.08;100999.88;5009547;28;20568;-81
2022/06/27 09:58:12;;;;;;;23.23;5.47;;;;;;;32.61;42.44;100955.63;5011618;28;20396;-80
2022/06/27 10:00:41;;;;;;;28.30;6.10;;;;;;;32.75;42.01;100962.22;5029940;28;20332;-81
2022/06/27 10:03:08;;;;;;;25.38;7.05;;;;;;;32.04;42.31;100825.69;5006728;28;20056;-82
2022/06/27 10:05:43;;;;;;;18.10;6.05;;;;;;;33.13;42.08;100981.16;5032830;28;20055;-83
2022/06/27 10:08:11;;;;;;;26.50;7.20;;;;;;;33.27;42.72;100990.47;5034318;28;20455;-83
2022/06/27 10:11:04;;;;;;;20.30;5.68;;;;;;;33.48;42.15;100976.69;5035113;28;20148;-82
2022/06/27 10:13:31;;;;;;;22.75;6.45;;;;;;;33.47;41.42;100947.50;5051312;28;20052;-82
2022/06/27 10:16:04;;;;;;;29.20;6.10;;;;;;;33.38;41.45;100909.56;5050417;28;20044;-82
2022/06/27 10:18:51;;;;;;;22.45;5.93;;;;;;;33.81;39.83;100958.66;5032466;28;20060;-82
2022/06/27 10:21:35;;;;;;;22.48;5.88;;;;;;;33.80;39.95;100927.53;5049802;28;20064;-81
2022/06/27 10:24:23;;;;;;;28.88;6.10;;;;;;;33.98;38.11;100939.00;5050589;28;20048;-82
2022/06/27 10:26:52;;;;;;;27.13;6.80;;;;;;;34.13;39.04;100916.91;5025664;28;20115;-80
2022/06/27 10:29:34;;;;;;;21.05;6.75;;;;;;;34.32;38.81;100943.75;5032200;28;20049;-82
2022/06/27 10:32:02;;;;;;;28.10;6.75;;;;;;;34.15;37.73;100900.88;5032196;28;20052;-82
2022/06/27 10:34:46;;;;;;;29.40;6.55;;;;;;;34.33;35.89;100904.06;5031782;28;20493;-81
2022/06/27 10:37:25;;;;;;;33.35;6.72;;;;;;;34.78;35.97;100941.44;5049740;28;20044;-83
2022/06/27 10:39:53;;;;;;;28.67;7.32;;;;;;;34.08;35.35;100845.34;5040180;28;20154;-82
2022/06/27 10:42:57;;;;;;;25.70;6.65;;;;;;;34.93;34.18;100943.25;5048720;28;20176;-81
2022/06/27 10:45:27;;;;;;;30.10;6.95;;;;;;;35.00;34.83;100943.69;5049527;28;20041;-82
2022/06/27 10:47:57;;;;;;;23.33;6.18;;;;;;;33.98;33.80;100747.03;5059166;28;20055;-78
2022/06/27 10:50:26;;;;;;;27.52;6.45;;;;;;;34.11;33.40;100739.25;5062531;28;20049;-82
2022/06/27 10:53:18;;;;;;;21.17;6.68;;;;;;;35.50;31.84;100935.16;5078811;28;20028;-82
2022/06/27 10:55:45;;;;;;;22.77;6.25;;;;;;;34.66;33.54;100801.25;5068692;28;20110;-82
2022/06/27 10:58:30;;;;;;;27.92;6.30;;;;;;;35.67;32.58;100941.00;5054776;28;20036;-80
2022/06/27 11:01:13;;;;;;;24.75;6.72;;;;;;;35.97;32.89;100938.09;5053809;28;20049;-78
2022/06/27 11:03:41;;;;;;;17.88;5.85;;;;;;;36.10;32.86;100932.69;5042395;28;20053;-79
2022/06/27 11:06:13;;;;;;;16.38;6.18;;;;;;;36.19;32.65;100946.63;5033575;28;20049;-82
2022/06/27 11:08:43;;;;;;;28.88;5.63;;;;;;;35.73;32.85;100856.16;5048231;28;20155;-84
2022/06/27 11:11:18;;;;;;;31.58;5.80;;;;;;;35.49;31.52;100807.34;5031912;28;20052;-81
2022/06/27 11:13:51;;;;;;;25.13;6.18;;;;;;;36.44;31.77;100952.91;5049891;28;20057;-82
2022/06/27 11:16:26;;;;;;;31.70;6.78;;;;;;;36.38;31.32;100950.19;5031509;28;20053;-82
2022/06/27 11:18:53;;;;;;;31.48;5.72;;;;;;;36.60;31.00;100948.75;5048050;28;20052;-84
2022/06/27 11:21:23;;;;;;;26.52;6.22;;;;;;;36.53;30.50;100902.13;5048795;28;20053;-81
2022/06/27 11:23:53;;;;;;;24.15;5.90;;;;;;;36.70;30.48;100934.75;5031612;28;20061;-82
2022/06/27 11:26:21;;;;;;;25.40;5.73;;;;;;;36.11;29.89;100828.50;5048021;28;20049;-83
2022/06/27 11:34:27;;;;;;;19.05;5.90;;;;;;;36.94;29.60;100895.03;5049603;28;20057;-82
2022/06/27 11:36:58;;;;;;;30.95;5.78;;;;;;;37.31;29.47;100927.25;5048169;28;20248;-83